sensor_id;sensor_type;location;lat;lon;timestamp;P1;durP1;ratioP1;P2;durP2;ratioP2
43527;SDS011;52359;42.658;23.320;2022-10-16T00:02:06;14.05;;;8.77;;
43527;SDS011;52359;42.658;23.320;2022-10-16T00:04:32;15.52;;;9.68;;
43527;SDS011;52359;42.658;23.320;2022-10-16T00:06:58;15.18;;;9.50;;
43527;SDS011;52359;42.658;23.320;2022-10-16T00:09:24;12.48;;;8.15;;
43527;SDS011;52359;42.658;23.320;2022-10-16T00:11:50;13.00;;;9.32;;
43527;SDS011;52359;42.658;23.320;2022-10-16T00:14:16;15.18;;;9.07;;
43527;SDS011;52359;42.658;23.320;2022-10-16T00:16:42;16.73;;;8.90;;
43527;SDS011;52359;42.658;23.320;2022-10-16T00:19:08;14.00;;;8.27;;
43527;SDS011;52359;42.658;23.320;2022-10-16T00:21:35;22.60;;;8.35;;
43527;SDS011;52359;42.658;23.320;2022-10-16T00:24:02;15.73;;;8.50;;
43527;SDS011;52359;42.658;23.320;2022-10-16T00:26:29;14.35;;;8.27;;
43527;SDS011;52359;42.658;23.320;2022-10-16T00:28:56;17.40;;;8.23;;
43527;SDS011;52359;42.658;23.320;2022-10-16T00:31:23;11.65;;;7.93;;
43527;SDS011;52359;42.658;23.320;2022-10-16T00:33:49;13.05;;;7.88;;
43527;SDS011;52359;42.658;23.320;2022-10-16T00:36:17;15.70;;;8.73;;
43527;SDS011;52359;42.658;23.320;2022-10-16T00:38:43;23.15;;;8.63;;
43527;SDS011;52359;42.658;23.320;2022-10-16T00:41:11;17.30;;;8.88;;
43527;SDS011;52359;42.658;23.320;2022-10-16T00:43:42;11.57;;;7.30;;
43527;SDS011;52359;42.658;23.320;2022-10-16T00:46:54;14.18;;;8.48;;
43527;SDS011;52359;42.658;23.320;2022-10-16T00:49:05;23.35;;;10.02;;
43527;SDS011;52359;42.658;23.320;2022-10-16T00:51:33;19.70;;;10.38;;
43527;SDS011;52359;42.658;23.320;2022-10-16T00:54:02;13.70;;;8.45;;
43527;SDS011;52359;42.658;23.320;2022-10-16T00:56:31;11.02;;;8.95;;
43527;SDS011;52359;42.658;23.320;2022-10-16T00:58:58;15.68;;;9.90;;
43527;SDS011;52359;42.658;23.320;2022-10-16T01:01:26;19.52;;;9.85;;
43527;SDS011;52359;42.658;23.320;2022-10-16T01:03:52;16.88;;;10.52;;
43527;SDS011;52359;42.658;23.320;2022-10-16T01:08:44;15.43;;;8.10;;
43527;SDS011;52359;42.658;23.320;2022-10-16T01:14:02;14.18;;;9.23;;
43527;SDS011;52359;42.658;23.320;2022-10-16T01:16:34;17.55;;;10.35;;
43527;SDS011;52359;42.658;23.320;2022-10-16T01:19:05;16.92;;;8.55;;
43527;SDS011;52359;42.658;23.320;2022-10-16T01:21:42;13.25;;;8.05;;
43527;SDS011;52359;42.658;23.320;2022-10-16T01:29:17;11.13;;;6.95;;
43527;SDS011;52359;42.658;23.320;2022-10-16T01:31:59;12.77;;;7.38;;
43527;SDS011;52359;42.658;23.320;2022-10-16T01:34:35;18.63;;;7.88;;
43527;SDS011;52359;42.658;23.320;2022-10-16T01:37:11;15.38;;;7.53;;
43527;SDS011;52359;42.658;23.320;2022-10-16T01:42:08;13.65;;;6.93;;
43527;SDS011;52359;42.658;23.320;2022-10-16T01:44:37;11.90;;;7.68;;
43527;SDS011;52359;42.658;23.320;2022-10-16T01:47:04;12.27;;;6.88;;
43527;SDS011;52359;42.658;23.320;2022-10-16T01:49:32;12.68;;;7.30;;
43527;SDS011;52359;42.658;23.320;2022-10-16T01:51:59;10.30;;;6.18;;
43527;SDS011;52359;42.658;23.320;2022-10-16T01:54:27;8.35;;;5.63;;
43527;SDS011;52359;42.658;23.320;2022-10-16T01:56:53;12.38;;;6.97;;
43527;SDS011;52359;42.658;23.320;2022-10-16T01:59:21;10.63;;;6.70;;
43527;SDS011;52359;42.658;23.320;2022-10-16T02:01:50;10.15;;;6.80;;
43527;SDS011;52359;42.658;23.320;2022-10-16T02:04:33;13.57;;;7.30;;
43527;SDS011;52359;42.658;23.320;2022-10-16T02:07:00;10.18;;;6.53;;
43527;SDS011;52359;42.658;23.320;2022-10-16T02:09:26;11.60;;;6.68;;
43527;SDS011;52359;42.658;23.320;2022-10-16T02:11:53;9.63;;;6.55;;
43527;SDS011;52359;42.658;23.320;2022-10-16T02:14:20;12.52;;;7.22;;
43527;SDS011;52359;42.658;23.320;2022-10-16T02:16:49;10.15;;;7.13;;
43527;SDS011;52359;42.658;23.320;2022-10-16T02:19:16;12.00;;;7.55;;
43527;SDS011;52359;42.658;23.320;2022-10-16T02:21:54;9.68;;;7.32;;
43527;SDS011;52359;42.658;23.320;2022-10-16T02:29:33;14.88;;;9.77;;
43527;SDS011;52359;42.658;23.320;2022-10-16T02:32:03;15.40;;;8.30;;
43527;SDS011;52359;42.658;23.320;2022-10-16T02:34:30;21.73;;;10.00;;
43527;SDS011;52359;42.658;23.320;2022-10-16T02:36:58;23.92;;;9.85;;
43527;SDS011;52359;42.658;23.320;2022-10-16T02:39:24;17.67;;;10.00;;
43527;SDS011;52359;42.658;23.320;2022-10-16T02:41:53;17.73;;;10.60;;
43527;SDS011;52359;42.658;23.320;2022-10-16T02:44:18;15.90;;;9.50;;
43527;SDS011;52359;42.658;23.320;2022-10-16T02:46:44;15.90;;;10.00;;
43527;SDS011;52359;42.658;23.320;2022-10-16T02:49:10;18.98;;;10.50;;
43527;SDS011;52359;42.658;23.320;2022-10-16T02:51:36;24.20;;;13.38;;
43527;SDS011;52359;42.658;23.320;2022-10-16T02:54:02;16.95;;;10.82;;
43527;SDS011;52359;42.658;23.320;2022-10-16T02:56:28;21.10;;;10.98;;
43527;SDS011;52359;42.658;23.320;2022-10-16T02:58:55;17.60;;;10.05;;
43527;SDS011;52359;42.658;23.320;2022-10-16T03:01:20;12.70;;;8.23;;
43527;SDS011;52359;42.658;23.320;2022-10-16T03:03:46;13.52;;;9.15;;
43527;SDS011;52359;42.658;23.320;2022-10-16T03:06:12;14.57;;;9.02;;
43527;SDS011;52359;42.658;23.320;2022-10-16T03:08:37;13.55;;;8.60;;
43527;SDS011;52359;42.658;23.320;2022-10-16T03:11:03;14.85;;;8.32;;
43527;SDS011;52359;42.658;23.320;2022-10-16T03:13:29;16.42;;;8.52;;
43527;SDS011;52359;42.658;23.320;2022-10-16T03:15:55;15.18;;;8.52;;
43527;SDS011;52359;42.658;23.320;2022-10-16T03:18:20;11.38;;;7.00;;
43527;SDS011;52359;42.658;23.320;2022-10-16T03:20:46;14.30;;;8.85;;
43527;SDS011;52359;42.658;23.320;2022-10-16T03:23:12;16.52;;;9.00;;
43527;SDS011;52359;42.658;23.320;2022-10-16T03:25:37;12.48;;;7.80;;
43527;SDS011;52359;42.658;23.320;2022-10-16T03:28:03;15.32;;;8.32;;
43527;SDS011;52359;42.658;23.320;2022-10-16T03:30:29;17.80;;;8.80;;
43527;SDS011;52359;42.658;23.320;2022-10-16T03:32:55;10.32;;;7.60;;
43527;SDS011;52359;42.658;23.320;2022-10-16T03:35:24;15.68;;;7.53;;
43527;SDS011;52359;42.658;23.320;2022-10-16T03:37:50;11.10;;;7.50;;
43527;SDS011;52359;42.658;23.320;2022-10-16T03:40:16;12.60;;;8.20;;
43527;SDS011;52359;42.658;23.320;2022-10-16T03:42:42;14.75;;;7.95;;
43527;SDS011;52359;42.658;23.320;2022-10-16T03:45:09;9.85;;;7.50;;
43527;SDS011;52359;42.658;23.320;2022-10-16T03:47:35;12.88;;;8.05;;
43527;SDS011;52359;42.658;23.320;2022-10-16T03:50:01;11.55;;;8.18;;
43527;SDS011;52359;42.658;23.320;2022-10-16T03:52:28;15.18;;;8.68;;
43527;SDS011;52359;42.658;23.320;2022-10-16T03:54:54;20.08;;;8.32;;
43527;SDS011;52359;42.658;23.320;2022-10-16T03:57:20;14.57;;;7.72;;
43527;SDS011;52359;42.658;23.320;2022-10-16T03:59:46;15.32;;;8.40;;
43527;SDS011;52359;42.658;23.320;2022-10-16T04:02:12;13.40;;;8.10;;
43527;SDS011;52359;42.658;23.320;2022-10-16T04:04:38;21.35;;;7.95;;
43527;SDS011;52359;42.658;23.320;2022-10-16T04:07:04;12.80;;;7.30;;
43527;SDS011;52359;42.658;23.320;2022-10-16T04:09:30;16.73;;;7.63;;
43527;SDS011;52359;42.658;23.320;2022-10-16T04:11:56;19.10;;;7.63;;
43527;SDS011;52359;42.658;23.320;2022-10-16T04:14:22;11.82;;;7.65;;
43527;SDS011;52359;42.658;23.320;2022-10-16T04:16:48;13.32;;;7.53;;
43527;SDS011;52359;42.658;23.320;2022-10-16T04:19:14;12.52;;;7.38;;
43527;SDS011;52359;42.658;23.320;2022-10-16T04:21:40;13.15;;;8.02;;
43527;SDS011;52359;42.658;23.320;2022-10-16T04:24:06;14.95;;;7.60;;
43527;SDS011;52359;42.658;23.320;2022-10-16T04:26:32;14.43;;;6.88;;
43527;SDS011;52359;42.658;23.320;2022-10-16T04:28:58;11.38;;;7.53;;
43527;SDS011;52359;42.658;23.320;2022-10-16T04:31:24;16.13;;;8.05;;
43527;SDS011;52359;42.658;23.320;2022-10-16T04:33:50;15.00;;;7.95;;
43527;SDS011;52359;42.658;23.320;2022-10-16T04:36:16;15.00;;;7.68;;
43527;SDS011;52359;42.658;23.320;2022-10-16T04:38:42;14.15;;;7.70;;
43527;SDS011;52359;42.658;23.320;2022-10-16T04:41:08;20.65;;;7.70;;
43527;SDS011;52359;42.658;23.320;2022-10-16T04:43:34;26.10;;;10.38;;
43527;SDS011;52359;42.658;23.320;2022-10-16T04:46:00;25.70;;;9.13;;
43527;SDS011;52359;42.658;23.320;2022-10-16T04:48:26;12.50;;;9.02;;
43527;SDS011;52359;42.658;23.320;2022-10-16T04:50:52;16.13;;;8.85;;
43527;SDS011;52359;42.658;23.320;2022-10-16T04:53:18;19.42;;;8.07;;
43527;SDS011;52359;42.658;23.320;2022-10-16T04:55:45;16.52;;;8.70;;
43527;SDS011;52359;42.658;23.320;2022-10-16T04:58:11;17.50;;;8.60;;
43527;SDS011;52359;42.658;23.320;2022-10-16T05:00:37;13.23;;;8.93;;
43527;SDS011;52359;42.658;23.320;2022-10-16T05:03:03;24.75;;;9.10;;
43527;SDS011;52359;42.658;23.320;2022-10-16T05:05:32;23.92;;;9.20;;
43527;SDS011;52359;42.658;23.320;2022-10-16T05:07:58;16.25;;;9.95;;
43527;SDS011;52359;42.658;23.320;2022-10-16T05:10:24;15.52;;;9.02;;
43527;SDS011;52359;42.658;23.320;2022-10-16T05:12:50;45.17;;;10.05;;
43527;SDS011;52359;42.658;23.320;2022-10-16T05:15:17;22.67;;;10.25;;
43527;SDS011;52359;42.658;23.320;2022-10-16T05:17:43;22.98;;;8.50;;
43527;SDS011;52359;42.658;23.320;2022-10-16T05:20:09;16.88;;;9.18;;
43527;SDS011;52359;42.658;23.320;2022-10-16T05:22:36;16.05;;;8.38;;
43527;SDS011;52359;42.658;23.320;2022-10-16T05:25:02;19.25;;;8.35;;
43527;SDS011;52359;42.658;23.320;2022-10-16T05:27:28;12.82;;;8.38;;
43527;SDS011;52359;42.658;23.320;2022-10-16T05:29:54;17.20;;;8.82;;
43527;SDS011;52359;42.658;23.320;2022-10-16T05:32:20;18.77;;;9.10;;
43527;SDS011;52359;42.658;23.320;2022-10-16T05:34:46;36.65;;;9.25;;
43527;SDS011;52359;42.658;23.320;2022-10-16T05:37:12;50.05;;;10.25;;
43527;SDS011;52359;42.658;23.320;2022-10-16T05:39:38;15.80;;;10.10;;
43527;SDS011;52359;42.658;23.320;2022-10-16T05:42:05;18.23;;;9.88;;
43527;SDS011;52359;42.658;23.320;2022-10-16T05:44:31;21.80;;;9.60;;
43527;SDS011;52359;42.658;23.320;2022-10-16T05:46:57;13.18;;;8.88;;
43527;SDS011;52359;42.658;23.320;2022-10-16T05:49:23;15.15;;;9.63;;
43527;SDS011;52359;42.658;23.320;2022-10-16T05:51:49;17.45;;;9.23;;
43527;SDS011;52359;42.658;23.320;2022-10-16T05:54:15;17.17;;;8.80;;
43527;SDS011;52359;42.658;23.320;2022-10-16T05:56:41;13.57;;;9.75;;
43527;SDS011;52359;42.658;23.320;2022-10-16T05:59:07;26.05;;;10.63;;
43527;SDS011;52359;42.658;23.320;2022-10-16T06:01:33;17.73;;;9.88;;
43527;SDS011;52359;42.658;23.320;2022-10-16T06:04:00;15.63;;;9.57;;
43527;SDS011;52359;42.658;23.320;2022-10-16T06:06:26;14.32;;;10.32;;
43527;SDS011;52359;42.658;23.320;2022-10-16T06:08:53;16.20;;;8.80;;
43527;SDS011;52359;42.658;23.320;2022-10-16T06:11:20;23.33;;;9.10;;
43527;SDS011;52359;42.658;23.320;2022-10-16T06:13:50;18.33;;;9.95;;
43527;SDS011;52359;42.658;23.320;2022-10-16T06:16:16;16.48;;;9.13;;
43527;SDS011;52359;42.658;23.320;2022-10-16T06:18:42;21.65;;;7.47;;
43527;SDS011;52359;42.658;23.320;2022-10-16T06:21:09;12.98;;;7.90;;
43527;SDS011;52359;42.658;23.320;2022-10-16T06:23:35;13.95;;;7.63;;
43527;SDS011;52359;42.658;23.320;2022-10-16T06:26:05;12.23;;;7.85;;
43527;SDS011;52359;42.658;23.320;2022-10-16T06:28:31;12.60;;;7.72;;
43527;SDS011;52359;42.658;23.320;2022-10-16T06:31:01;17.75;;;7.57;;
43527;SDS011;52359;42.658;23.320;2022-10-16T06:33:27;11.70;;;7.28;;
43527;SDS011;52359;42.658;23.320;2022-10-16T06:35:53;10.15;;;7.20;;
43527;SDS011;52359;42.658;23.320;2022-10-16T06:38:19;15.73;;;6.95;;
43527;SDS011;52359;42.658;23.320;2022-10-16T06:40:45;6.30;;;5.40;;
43527;SDS011;52359;42.658;23.320;2022-10-16T06:43:11;10.00;;;6.53;;
43527;SDS011;52359;42.658;23.320;2022-10-16T06:45:37;13.55;;;6.35;;
43527;SDS011;52359;42.658;23.320;2022-10-16T06:48:03;9.68;;;6.43;;
43527;SDS011;52359;42.658;23.320;2022-10-16T06:50:29;16.27;;;6.13;;
43527;SDS011;52359;42.658;23.320;2022-10-16T06:52:55;15.63;;;7.00;;
43527;SDS011;52359;42.658;23.320;2022-10-16T06:55:21;17.35;;;7.10;;
43527;SDS011;52359;42.658;23.320;2022-10-16T06:57:47;13.75;;;6.35;;
43527;SDS011;52359;42.658;23.320;2022-10-16T07:00:13;8.57;;;5.80;;
43527;SDS011;52359;42.658;23.320;2022-10-16T07:02:39;12.80;;;5.78;;
43527;SDS011;52359;42.658;23.320;2022-10-16T07:05:06;12.60;;;6.55;;
43527;SDS011;52359;42.658;23.320;2022-10-16T07:07:32;7.80;;;5.45;;
43527;SDS011;52359;42.658;23.320;2022-10-16T07:09:58;10.27;;;5.60;;
43527;SDS011;52359;42.658;23.320;2022-10-16T07:12:24;9.02;;;5.28;;
43527;SDS011;52359;42.658;23.320;2022-10-16T07:14:50;12.48;;;5.43;;
43527;SDS011;52359;42.658;23.320;2022-10-16T07:17:17;10.05;;;5.43;;
43527;SDS011;52359;42.658;23.320;2022-10-16T07:19:43;11.50;;;5.55;;
43527;SDS011;52359;42.658;23.320;2022-10-16T07:22:09;10.23;;;5.95;;
43527;SDS011;52359;42.658;23.320;2022-10-16T07:24:35;12.18;;;4.97;;
43527;SDS011;52359;42.658;23.320;2022-10-16T07:27:01;11.15;;;5.75;;
43527;SDS011;52359;42.658;23.320;2022-10-16T07:29:27;11.25;;;5.55;;
43527;SDS011;52359;42.658;23.320;2022-10-16T07:31:53;11.85;;;5.30;;
43527;SDS011;52359;42.658;23.320;2022-10-16T07:34:21;14.32;;;5.70;;
43527;SDS011;52359;42.658;23.320;2022-10-16T07:36:48;10.70;;;6.13;;
43527;SDS011;52359;42.658;23.320;2022-10-16T07:39:14;9.05;;;5.93;;
43527;SDS011;52359;42.658;23.320;2022-10-16T07:41:40;10.60;;;5.38;;
43527;SDS011;52359;42.658;23.320;2022-10-16T07:44:06;7.35;;;5.43;;
43527;SDS011;52359;42.658;23.320;2022-10-16T07:46:33;9.48;;;6.50;;
43527;SDS011;52359;42.658;23.320;2022-10-16T07:49:00;15.25;;;6.13;;
43527;SDS011;52359;42.658;23.320;2022-10-16T07:51:26;19.63;;;7.40;;
43527;SDS011;52359;42.658;23.320;2022-10-16T07:53:52;13.52;;;7.43;;
43527;SDS011;52359;42.658;23.320;2022-10-16T07:56:19;19.08;;;7.07;;
43527;SDS011;52359;42.658;23.320;2022-10-16T07:58:45;15.00;;;8.20;;
43527;SDS011;52359;42.658;23.320;2022-10-16T08:01:12;17.23;;;7.43;;
43527;SDS011;52359;42.658;23.320;2022-10-16T08:03:41;12.95;;;7.45;;
43527;SDS011;52359;42.658;23.320;2022-10-16T08:06:07;11.27;;;7.13;;
43527;SDS011;52359;42.658;23.320;2022-10-16T08:08:33;10.43;;;7.15;;
43527;SDS011;52359;42.658;23.320;2022-10-16T08:10:59;10.88;;;7.22;;
43527;SDS011;52359;42.658;23.320;2022-10-16T08:13:25;13.43;;;6.70;;
43527;SDS011;52359;42.658;23.320;2022-10-16T08:15:51;8.30;;;6.70;;
43527;SDS011;52359;42.658;23.320;2022-10-16T08:18:19;17.63;;;6.13;;
43527;SDS011;52359;42.658;23.320;2022-10-16T08:20:45;13.73;;;6.35;;
43527;SDS011;52359;42.658;23.320;2022-10-16T08:23:11;9.52;;;5.82;;
43527;SDS011;52359;42.658;23.320;2022-10-16T08:25:41;11.52;;;6.32;;
43527;SDS011;52359;42.658;23.320;2022-10-16T08:28:09;9.52;;;5.60;;
43527;SDS011;52359;42.658;23.320;2022-10-16T08:30:35;10.98;;;5.90;;
43527;SDS011;52359;42.658;23.320;2022-10-16T08:33:02;13.55;;;5.55;;
43527;SDS011;52359;42.658;23.320;2022-10-16T08:35:28;6.93;;;5.50;;
43527;SDS011;52359;42.658;23.320;2022-10-16T08:37:54;9.02;;;5.35;;
43527;SDS011;52359;42.658;23.320;2022-10-16T08:40:24;10.55;;;4.90;;
43527;SDS011;52359;42.658;23.320;2022-10-16T08:50:28;9.93;;;5.30;;
43527;SDS011;52359;42.658;23.320;2022-10-16T08:52:54;9.85;;;4.82;;
43527;SDS011;52359;42.658;23.320;2022-10-16T08:57:47;9.45;;;3.90;;
43527;SDS011;52359;42.658;23.320;2022-10-16T09:00:14;9.50;;;4.57;;
43527;SDS011;52359;42.658;23.320;2022-10-16T09:02:45;6.63;;;3.53;;
43527;SDS011;52359;42.658;23.320;2022-10-16T09:08:17;8.30;;;3.88;;
43527;SDS011;52359;42.658;23.320;2022-10-16T09:11:09;9.18;;;3.58;;
43527;SDS011;52359;42.658;23.320;2022-10-16T09:13:38;7.60;;;3.88;;
43527;SDS011;52359;42.658;23.320;2022-10-16T09:18:45;4.13;;;2.92;;
43527;SDS011;52359;42.658;23.320;2022-10-16T09:21:23;6.07;;;3.05;;
43527;SDS011;52359;42.658;23.320;2022-10-16T09:23:50;6.82;;;3.20;;
43527;SDS011;52359;42.658;23.320;2022-10-16T09:26:16;8.90;;;3.63;;
43527;SDS011;52359;42.658;23.320;2022-10-16T09:28:46;9.95;;;3.20;;
43527;SDS011;52359;42.658;23.320;2022-10-16T09:31:16;10.02;;;3.15;;
43527;SDS011;52359;42.658;23.320;2022-10-16T09:33:43;10.35;;;3.25;;
43527;SDS011;52359;42.658;23.320;2022-10-16T09:36:10;4.03;;;3.10;;
43527;SDS011;52359;42.658;23.320;2022-10-16T09:38:37;5.00;;;2.72;;
43527;SDS011;52359;42.658;23.320;2022-10-16T09:41:10;3.40;;;2.97;;
43527;SDS011;52359;42.658;23.320;2022-10-16T09:46:07;6.47;;;3.03;;
43527;SDS011;52359;42.658;23.320;2022-10-16T09:48:37;3.92;;;3.00;;
43527;SDS011;52359;42.658;23.320;2022-10-16T09:51:06;4.05;;;2.90;;
43527;SDS011;52359;42.658;23.320;2022-10-16T09:53:43;8.57;;;3.53;;
43527;SDS011;52359;42.658;23.320;2022-10-16T09:56:10;3.40;;;2.88;;
43527;SDS011;52359;42.658;23.320;2022-10-16T09:58:41;3.13;;;2.58;;
43527;SDS011;52359;42.658;23.320;2022-10-16T10:01:11;6.03;;;2.53;;
43527;SDS011;52359;42.658;23.320;2022-10-16T10:03:38;6.53;;;2.55;;
43527;SDS011;52359;42.658;23.320;2022-10-16T10:06:13;7.20;;;2.95;;
43527;SDS011;52359;42.658;23.320;2022-10-16T10:08:41;3.42;;;2.85;;
43527;SDS011;52359;42.658;23.320;2022-10-16T10:11:07;13.85;;;3.97;;
43527;SDS011;52359;42.658;23.320;2022-10-16T10:13:33;4.70;;;2.78;;
43527;SDS011;52359;42.658;23.320;2022-10-16T10:15:59;7.55;;;3.00;;
43527;SDS011;52359;42.658;23.320;2022-10-16T10:18:25;13.98;;;2.80;;
43527;SDS011;52359;42.658;23.320;2022-10-16T10:20:58;10.45;;;2.47;;
43527;SDS011;52359;42.658;23.320;2022-10-16T10:23:25;11.73;;;2.17;;
43527;SDS011;52359;42.658;23.320;2022-10-16T10:26:10;3.15;;;1.98;;
43527;SDS011;52359;42.658;23.320;2022-10-16T10:28:55;4.88;;;2.15;;
43527;SDS011;52359;42.658;23.320;2022-10-16T10:36:39;12.20;;;2.25;;
43527;SDS011;52359;42.658;23.320;2022-10-16T10:46:56;3.00;;;2.70;;
43527;SDS011;52359;42.658;23.320;2022-10-16T10:54:22;11.48;;;2.15;;
43527;SDS011;52359;42.658;23.320;2022-10-16T10:56:56;6.50;;;2.60;;
43527;SDS011;52359;42.658;23.320;2022-10-16T11:07:19;2.83;;;2.25;;
43527;SDS011;52359;42.658;23.320;2022-10-16T11:09:47;2.28;;;2.17;;
43527;SDS011;52359;42.658;23.320;2022-10-16T11:17:14;4.03;;;2.17;;
43527;SDS011;52359;42.658;23.320;2022-10-16T11:27:41;3.30;;;2.33;;
43527;SDS011;52359;42.658;23.320;2022-10-16T11:30:16;2.03;;;1.90;;
43527;SDS011;52359;42.658;23.320;2022-10-16T11:35:35;2.10;;;2.00;;
43527;SDS011;52359;42.658;23.320;2022-10-16T11:38:03;3.70;;;1.98;;
43527;SDS011;52359;42.658;23.320;2022-10-16T11:40:31;8.40;;;2.38;;
43527;SDS011;52359;42.658;23.320;2022-10-16T11:45:46;1.90;;;1.80;;
43527;SDS011;52359;42.658;23.320;2022-10-16T11:56:04;3.17;;;2.20;;
43527;SDS011;52359;42.658;23.320;2022-10-16T11:58:31;3.92;;;1.77;;
43527;SDS011;52359;42.658;23.320;2022-10-16T12:09:14;1.40;;;1.40;;
43527;SDS011;52359;42.658;23.320;2022-10-16T12:11:49;1.88;;;1.50;;
43527;SDS011;52359;42.658;23.320;2022-10-16T12:16:50;5.32;;;2.05;;
43527;SDS011;52359;42.658;23.320;2022-10-16T12:19:17;8.50;;;2.17;;
43527;SDS011;52359;42.658;23.320;2022-10-16T12:21:43;3.00;;;1.90;;
43527;SDS011;52359;42.658;23.320;2022-10-16T12:30:03;3.90;;;2.08;;
43527;SDS011;52359;42.658;23.320;2022-10-16T12:32:35;2.30;;;2.10;;
43527;SDS011;52359;42.658;23.320;2022-10-16T12:35:03;2.83;;;1.90;;
43527;SDS011;52359;42.658;23.320;2022-10-16T12:37:32;2.25;;;2.13;;
43527;SDS011;52359;42.658;23.320;2022-10-16T12:40:00;1.90;;;1.80;;
43527;SDS011;52359;42.658;23.320;2022-10-16T12:42:38;1.80;;;1.70;;
43527;SDS011;52359;42.658;23.320;2022-10-16T12:47:54;2.40;;;2.10;;
43527;SDS011;52359;42.658;23.320;2022-10-16T12:53:01;6.55;;;1.95;;
43527;SDS011;52359;42.658;23.320;2022-10-16T12:55:42;7.43;;;2.10;;
43527;SDS011;52359;42.658;23.320;2022-10-16T13:00:41;2.30;;;2.10;;
43527;SDS011;52359;42.658;23.320;2022-10-16T13:11:23;7.78;;;2.38;;
43527;SDS011;52359;42.658;23.320;2022-10-16T13:17:01;5.05;;;2.28;;
43527;SDS011;52359;42.658;23.320;2022-10-16T13:22:55;3.55;;;2.22;;
43527;SDS011;52359;42.658;23.320;2022-10-16T13:28:14;2.38;;;2.08;;
43527;SDS011;52359;42.658;23.320;2022-10-16T13:30:41;2.70;;;2.50;;
43527;SDS011;52359;42.658;23.320;2022-10-16T13:35:35;4.60;;;2.53;;
43527;SDS011;52359;42.658;23.320;2022-10-16T13:40:30;5.90;;;2.08;;
43527;SDS011;52359;42.658;23.320;2022-10-16T13:42:59;4.03;;;2.17;;
43527;SDS011;52359;42.658;23.320;2022-10-16T13:45:25;6.10;;;2.35;;
43527;SDS011;52359;42.658;23.320;2022-10-16T13:48:04;7.95;;;2.17;;
43527;SDS011;52359;42.658;23.320;2022-10-16T13:50:31;12.30;;;2.33;;
43527;SDS011;52359;42.658;23.320;2022-10-16T13:53:04;7.03;;;2.30;;
43527;SDS011;52359;42.658;23.320;2022-10-16T13:55:30;4.35;;;2.85;;
43527;SDS011;52359;42.658;23.320;2022-10-16T13:58:13;2.72;;;2.20;;
43527;SDS011;52359;42.658;23.320;2022-10-16T14:00:40;5.65;;;2.10;;
43527;SDS011;52359;42.658;23.320;2022-10-16T14:03:11;6.05;;;2.25;;
43527;SDS011;52359;42.658;23.320;2022-10-16T14:05:48;7.05;;;2.45;;
43527;SDS011;52359;42.658;23.320;2022-10-16T14:08:14;8.60;;;2.72;;
43527;SDS011;52359;42.658;23.320;2022-10-16T14:10:40;2.88;;;2.63;;
43527;SDS011;52359;42.658;23.320;2022-10-16T14:13:07;6.03;;;2.40;;
43527;SDS011;52359;42.658;23.320;2022-10-16T14:18:04;6.10;;;2.45;;
43527;SDS011;52359;42.658;23.320;2022-10-16T14:20:31;2.70;;;2.47;;
43527;SDS011;52359;42.658;23.320;2022-10-16T14:23:17;6.97;;;2.80;;
43527;SDS011;52359;42.658;23.320;2022-10-16T14:25:47;6.90;;;2.65;;
43527;SDS011;52359;42.658;23.320;2022-10-16T14:30:54;5.10;;;2.25;;
43527;SDS011;52359;42.658;23.320;2022-10-16T14:33:31;6.18;;;2.28;;
43527;SDS011;52359;42.658;23.320;2022-10-16T14:38:30;8.60;;;2.40;;
43527;SDS011;52359;42.658;23.320;2022-10-16T14:40:58;3.63;;;2.15;;
43527;SDS011;52359;42.658;23.320;2022-10-16T14:46:01;3.88;;;2.42;;
43527;SDS011;52359;42.658;23.320;2022-10-16T14:48:30;3.92;;;2.40;;
43527;SDS011;52359;42.658;23.320;2022-10-16T14:50:56;5.35;;;2.50;;
43527;SDS011;52359;42.658;23.320;2022-10-16T14:53:22;3.83;;;2.70;;
43527;SDS011;52359;42.658;23.320;2022-10-16T14:55:48;6.75;;;2.70;;
43527;SDS011;52359;42.658;23.320;2022-10-16T14:58:22;6.18;;;3.38;;
43527;SDS011;52359;42.658;23.320;2022-10-16T15:00:50;6.85;;;3.13;;
43527;SDS011;52359;42.658;23.320;2022-10-16T15:03:15;7.85;;;2.78;;
43527;SDS011;52359;42.658;23.320;2022-10-16T15:05:41;5.72;;;2.70;;
43527;SDS011;52359;42.658;23.320;2022-10-16T15:08:07;5.28;;;2.70;;
43527;SDS011;52359;42.658;23.320;2022-10-16T15:10:42;11.68;;;2.90;;
43527;SDS011;52359;42.658;23.320;2022-10-16T15:13:12;7.80;;;3.00;;
43527;SDS011;52359;42.658;23.320;2022-10-16T15:15:41;8.82;;;2.60;;
43527;SDS011;52359;42.658;23.320;2022-10-16T15:18:11;13.13;;;3.50;;
43527;SDS011;52359;42.658;23.320;2022-10-16T15:20:38;5.80;;;3.20;;
43527;SDS011;52359;42.658;23.320;2022-10-16T15:23:05;12.82;;;2.85;;
43527;SDS011;52359;42.658;23.320;2022-10-16T15:25:43;11.43;;;2.75;;
43527;SDS011;52359;42.658;23.320;2022-10-16T15:28:10;12.70;;;2.90;;
43527;SDS011;52359;42.658;23.320;2022-10-16T15:30:37;12.40;;;2.33;;
43527;SDS011;52359;42.658;23.320;2022-10-16T15:33:03;10.25;;;2.83;;
43527;SDS011;52359;42.658;23.320;2022-10-16T15:35:30;7.60;;;2.85;;
43527;SDS011;52359;42.658;23.320;2022-10-16T15:37:56;10.13;;;3.38;;
43527;SDS011;52359;42.658;23.320;2022-10-16T15:40:22;15.70;;;3.05;;
43527;SDS011;52359;42.658;23.320;2022-10-16T15:42:48;10.85;;;3.47;;
43527;SDS011;52359;42.658;23.320;2022-10-16T15:45:14;9.27;;;3.40;;
43527;SDS011;52359;42.658;23.320;2022-10-16T15:47:41;9.20;;;3.10;;
43527;SDS011;52359;42.658;23.320;2022-10-16T15:50:09;6.68;;;3.92;;
43527;SDS011;52359;42.658;23.320;2022-10-16T15:52:39;5.47;;;3.17;;
43527;SDS011;52359;42.658;23.320;2022-10-16T15:55:09;7.25;;;3.95;;
43527;SDS011;52359;42.658;23.320;2022-10-16T15:57:36;11.38;;;3.30;;
43527;SDS011;52359;42.658;23.320;2022-10-16T16:00:11;8.13;;;3.53;;
43527;SDS011;52359;42.658;23.320;2022-10-16T16:02:37;14.88;;;3.45;;
43527;SDS011;52359;42.658;23.320;2022-10-16T16:05:04;52.03;;;6.05;;
43527;SDS011;52359;42.658;23.320;2022-10-16T16:07:35;46.30;;;5.28;;
43527;SDS011;52359;42.658;23.320;2022-10-16T16:10:04;32.70;;;4.13;;
43527;SDS011;52359;42.658;23.320;2022-10-16T16:12:30;24.48;;;4.15;;
43527;SDS011;52359;42.658;23.320;2022-10-16T16:14:56;6.88;;;3.53;;
43527;SDS011;52359;42.658;23.320;2022-10-16T16:17:22;9.38;;;4.50;;
43527;SDS011;52359;42.658;23.320;2022-10-16T16:19:49;11.75;;;4.68;;
43527;SDS011;52359;42.658;23.320;2022-10-16T16:22:15;13.45;;;5.18;;
43527;SDS011;52359;42.658;23.320;2022-10-16T16:24:41;12.95;;;5.00;;
43527;SDS011;52359;42.658;23.320;2022-10-16T16:27:07;20.42;;;4.15;;
43527;SDS011;52359;42.658;23.320;2022-10-16T16:29:33;16.27;;;4.82;;
43527;SDS011;52359;42.658;23.320;2022-10-16T16:31:59;21.52;;;5.18;;
43527;SDS011;52359;42.658;23.320;2022-10-16T16:34:26;22.35;;;5.40;;
43527;SDS011;52359;42.658;23.320;2022-10-16T16:36:53;18.75;;;5.70;;
43527;SDS011;52359;42.658;23.320;2022-10-16T16:39:19;9.55;;;4.55;;
43527;SDS011;52359;42.658;23.320;2022-10-16T16:41:45;38.55;;;6.47;;
43527;SDS011;52359;42.658;23.320;2022-10-16T16:44:12;37.35;;;6.45;;
43527;SDS011;52359;42.658;23.320;2022-10-16T16:46:38;34.28;;;6.10;;
43527;SDS011;52359;42.658;23.320;2022-10-16T16:49:05;28.90;;;5.88;;
43527;SDS011;52359;42.658;23.320;2022-10-16T16:51:32;26.85;;;5.85;;
43527;SDS011;52359;42.658;23.320;2022-10-16T16:53:58;17.52;;;5.53;;
43527;SDS011;52359;42.658;23.320;2022-10-16T16:56:25;20.98;;;6.40;;